Time;durP1;ratioP1;P1;durP2;ratioP2;P2;SDS_P1;SDS_P2;PMS_P1;PMS_P2;Temp;Humidity;BMP_temperature;BMP_pressure;BME280_temperature;BME280_humidity;BME280_pressure;Samples;Min_cycle;Max_cycle;Signal;HPM_P1;HPM_P2
2021/11/29 00:01:53;;;;;;;6.85;4.65;;;;;;;8.68;47.19;99825.13;5043772;28;20053;-76
2021/11/29 00:04:20;;;;;;;7.32;4.53;;;;;;;8.63;47.34;99836.31;5058807;28;20056;-76
2021/11/29 00:06:47;;;;;;;7.53;5.05;;;;;;;8.62;47.01;99833.72;5049418;28;20115;-76
2021/11/29 00:09:13;;;;;;;8.77;4.68;;;;;;;8.62;47.16;99839.13;5064775;28;20053;-76
2021/11/29 00:11:41;;;;;;;6.90;4.85;;;;;;;8.60;47.02;99838.38;5059221;28;20049;-76
2021/11/29 00:14:08;;;;;;;6.25;4.32;;;;;;;8.58;46.97;99843.03;5039195;28;20175;-76
2021/11/29 00:16:34;;;;;;;5.95;4.28;;;;;;;8.57;47.01;99858.38;5062071;28;20522;-76
2021/11/29 00:19:04;;;;;;;7.30;4.55;;;;;;;8.55;47.00;99856.81;5056042;28;20041;-77
2021/11/29 00:21:32;;;;;;;7.63;4.80;;;;;;;8.55;47.00;99857.66;5061864;28;20060;-77
2021/11/29 00:23:59;;;;;;;7.20;4.93;;;;;;;8.53;47.03;99869.56;5067550;28;20135;-76
2021/11/29 00:26:27;;;;;;;6.53;4.43;;;;;;;8.51;47.23;99864.25;5054739;28;20049;-77
2021/11/29 00:28:54;;;;;;;7.13;5.00;;;;;;;8.50;46.94;99875.19;5074376;28;20113;-77
2021/11/29 00:31:21;;;;;;;7.00;4.43;;;;;;;8.49;46.93;99863.50;5056385;28;20057;-77
2021/11/29 00:33:49;;;;;;;6.65;4.53;;;;;;;8.49;46.97;99877.03;5062622;28;20131;-77
2021/11/29 00:36:16;;;;;;;6.40;4.47;;;;;;;8.47;47.26;99868.19;5045629;28;20057;-77
2021/11/29 00:38:43;;;;;;;6.30;4.45;;;;;;;8.47;47.00;99870.03;5058352;28;20045;-77
2021/11/29 00:44:58;;;;;;;8.00;5.18;;;;;;;8.38;47.01;99883.25;5064749;28;20461;-77
2021/11/29 00:47:24;;;;;;;6.80;4.53;;;;;;;8.39;47.00;99885.00;5051907;28;20049;-77
2021/11/29 00:49:51;;;;;;;7.88;4.63;;;;;;;8.39;47.01;99885.00;5061620;28;20106;-76
2021/11/29 00:52:18;;;;;;;7.50;4.53;;;;;;;8.37;46.92;99883.38;5049181;28;20405;-77
2021/11/29 00:54:44;;;;;;;7.53;4.60;;;;;;;8.37;47.08;99889.63;5060627;28;20076;-76
2021/11/29 00:57:11;;;;;;;8.98;4.60;;;;;;;8.36;47.03;99873.50;5066152;28;20060;-77
2021/11/29 00:59:37;;;;;;;7.78;4.47;;;;;;;8.35;46.88;99880.75;5059918;28;20056;-76
2021/11/29 01:02:05;;;;;;;6.30;4.50;;;;;;;8.35;47.03;99879.91;5056049;28;20064;-76
2021/11/29 01:04:32;;;;;;;7.55;4.55;;;;;;;8.34;47.00;99888.97;5042275;28;20044;-77
2021/11/29 01:06:59;;;;;;;7.45;4.45;;;;;;;8.34;46.99;99891.69;5052754;28;20154;-76
2021/11/29 01:09:25;;;;;;;5.97;3.83;;;;;;;8.33;46.98;99892.66;5058730;28;20105;-76
2021/11/29 01:11:52;;;;;;;7.30;4.35;;;;;;;8.31;47.26;99891.94;5063747;28;20084;-76
2021/11/29 01:14:18;;;;;;;8.25;4.07;;;;;;;8.30;47.02;99901.84;5059650;28;20044;-77
2021/11/29 01:16:45;;;;;;;5.93;4.38;;;;;;;8.30;47.02;99900.97;5058267;28;20100;-77
2021/11/29 01:19:12;;;;;;;7.35;4.00;;;;;;;8.29;46.97;99907.38;5063813;28;20048;-77
2021/11/29 01:21:38;;;;;;;7.28;4.38;;;;;;;8.27;47.03;99909.31;5063856;28;20080;-77
2021/11/29 01:24:05;;;;;;;6.70;4.32;;;;;;;8.25;46.73;99904.00;5058225;28;20532;-76
2021/11/29 01:26:31;;;;;;;7.70;4.05;;;;;;;8.24;46.93;99913.09;5057347;28;20053;-77
2021/11/29 01:28:59;;;;;;;6.35;4.30;;;;;;;8.24;46.84;99917.63;5056796;28;20467;-77
2021/11/29 01:31:26;;;;;;;5.47;3.72;;;;;;;8.22;46.75;99916.91;5057792;28;20130;-77
2021/11/29 01:33:53;;;;;;;5.78;3.97;;;;;;;8.20;46.89;99922.41;5058799;28;20060;-76
2021/11/29 01:36:20;;;;;;;7.32;4.20;;;;;;;8.19;46.84;99920.69;5048714;28;20427;-76
2021/11/29 01:38:47;;;;;;;7.18;4.10;;;;;;;8.18;46.86;99923.47;5047596;28;20099;-76
2021/11/29 01:41:16;;;;;;;6.40;3.60;;;;;;;8.17;46.80;99919.06;5038277;28;20503;-76
2021/11/29 01:43:44;;;;;;;6.32;3.80;;;;;;;8.17;46.88;99922.63;5057917;28;20118;-76
2021/11/29 01:46:11;;;;;;;7.10;3.92;;;;;;;8.16;46.79;99928.13;5058624;28;20061;-76
2021/11/29 01:48:38;;;;;;;7.22;4.32;;;;;;;8.14;46.86;99919.28;5054130;28;20044;-76
2021/11/29 01:51:05;;;;;;;6.25;3.85;;;;;;;8.13;46.81;99926.53;5053782;28;20045;-77
2021/11/29 01:53:32;;;;;;;7.20;4.10;;;;;;;8.12;46.50;99932.03;5054892;28;21103;-76
2021/11/29 01:55:59;;;;;;;6.75;3.70;;;;;;;8.09;46.56;99940.34;5060306;28;20081;-76
2021/11/29 01:58:29;;;;;;;9.80;3.90;;;;;;;8.09;46.71;99933.13;5046031;28;20099;-76
2021/11/29 02:00:59;;;;;;;5.90;3.45;;;;;;;8.08;46.89;99938.63;5062411;28;20114;-76
2021/11/29 02:03:27;;;;;;;7.85;3.83;;;;;;;8.07;46.60;99939.63;5057965;28;20060;-76
2021/11/29 02:05:54;;;;;;;6.60;3.92;;;;;;;8.05;46.68;99939.72;5054001;28;20136;-76
2021/11/29 02:08:23;;;;;;;6.82;4.20;;;;;;;8.04;46.66;99948.81;5067191;28;20040;-76
2021/11/29 02:10:50;;;;;;;7.43;3.92;;;;;;;8.01;46.55;99949.88;5046241;28;20048;-77
2021/11/29 02:13:18;;;;;;;6.10;4.13;;;;;;;8.02;46.76;99946.22;5036940;28;20087;-77
2021/11/29 02:15:50;;;;;;;5.45;3.50;;;;;;;7.99;46.27;99946.41;5043154;28;20053;-76
2021/11/29 02:18:20;;;;;;;5.32;3.72;;;;;;;7.97;46.63;99950.22;5066060;28;20036;-76
2021/11/29 02:21:10;;;;;;;4.70;3.42;;;;;;;7.95;46.58;99947.63;5056229;28;20499;-76
2021/11/29 02:23:40;;;;;;;6.78;3.70;;;;;;;7.94;46.57;99951.28;5053344;28;20052;-76
2021/11/29 02:26:07;;;;;;;4.68;3.33;;;;;;;7.94;46.71;99955.84;5051582;28;20671;-76
2021/11/29 02:28:37;;;;;;;6.85;3.78;;;;;;;7.92;46.48;99953.22;5079288;28;20472;-76
2021/11/29 02:31:17;;;;;;;5.20;3.42;;;;;;;7.93;46.55;99959.50;5048480;28;20099;-76
2021/11/29 02:33:47;;;;;;;5.90;3.80;;;;;;;7.90;46.62;99957.03;5064818;28;20050;-77
2021/11/29 02:36:14;;;;;;;5.43;3.20;;;;;;;7.87;46.74;99963.50;5055401;28;20088;-76
2021/11/29 02:38:43;;;;;;;5.22;3.28;;;;;;;7.87;46.69;99963.50;5061202;28;20044;-76
2021/11/29 02:41:10;;;;;;;5.65;3.40;;;;;;;7.84;46.38;99966.41;5038046;28;20050;-77
2021/11/29 02:43:37;;;;;;;4.57;2.90;;;;;;;7.83;46.62;99963.81;5062828;28;20132;-75
2021/11/29 02:46:05;;;;;;;5.80;3.30;;;;;;;7.82;46.51;99959.41;5056295;28;20094;-77
2021/11/29 02:48:42;;;;;;;5.38;3.40;;;;;;;7.81;46.91;99960.38;5064268;28;20493;-76
2021/11/29 02:51:18;;;;;;;4.80;3.13;;;;;;;7.79;46.65;99960.47;5066319;28;20059;-76
2021/11/29 02:53:45;;;;;;;5.60;3.20;;;;;;;7.76;46.59;99959.81;5066542;28;20356;-76
2021/11/29 02:56:13;;;;;;;4.95;3.00;;;;;;;7.75;46.76;99953.53;5046611;28;20504;-76
2021/11/29 02:58:41;;;;;;;5.82;3.20;;;;;;;7.75;46.81;99958.06;5074863;28;20507;-76
2021/11/29 03:01:08;;;;;;;4.10;2.97;;;;;;;7.72;46.99;99951.06;5059108;28;20051;-76
2021/11/29 03:03:46;;;;;;;7.18;3.28;;;;;;;7.74;46.84;99953.69;5050969;28;20052;-77
2021/11/29 03:06:13;;;;;;;4.40;3.00;;;;;;;7.71;46.97;99959.28;5066996;28;20050;-76
2021/11/29 03:08:40;;;;;;;6.60;3.33;;;;;;;7.71;46.95;99960.16;5071107;28;20131;-76
2021/11/29 03:11:07;;;;;;;5.25;3.17;;;;;;;7.70;46.69;99963.81;5054883;28;20135;-77
2021/11/29 03:13:34;;;;;;;5.57;3.40;;;;;;;7.70;46.78;99966.50;5041202;28;20044;-76
2021/11/29 03:16:01;;;;;;;5.35;2.92;;;;;;;7.70;46.95;99971.06;5051070;28;20057;-76
2021/11/29 03:18:40;;;;;;;5.78;3.60;;;;;;;7.71;46.95;99970.97;5071061;28;20066;-76
2021/11/29 03:21:08;;;;;;;4.53;3.00;;;;;;;7.68;46.85;99975.69;5055197;28;20083;-77
2021/11/29 03:23:36;;;;;;;5.20;3.30;;;;;;;7.68;46.93;99979.25;5057365;28;20105;-76
2021/11/29 03:26:08;;;;;;;5.70;3.20;;;;;;;7.68;46.94;99975.69;5044327;28;20052;-77
2021/11/29 03:28:40;;;;;;;5.15;3.47;;;;;;;7.64;46.76;99988.56;5075789;28;20562;-76
2021/11/29 03:31:09;;;;;;;6.15;3.50;;;;;;;7.63;46.90;99992.22;5053929;28;20113;-76
2021/11/29 03:33:37;;;;;;;5.47;3.28;;;;;;;7.60;46.95;99993.28;5055014;28;20059;-76
2021/11/29 03:36:04;;;;;;;5.25;3.30;;;;;;;7.59;46.84;99998.78;5048908;28;20053;-76
2021/11/29 03:38:32;;;;;;;4.88;3.22;;;;;;;7.57;46.73;99993.53;5059002;28;20075;-76
2021/11/29 03:41:00;;;;;;;6.40;3.70;;;;;;;7.57;46.70;99995.34;5050047;28;20041;-76
2021/11/29 03:43:27;;;;;;;5.78;3.22;;;;;;;7.53;46.45;99996.53;5044337;28;20045;-76
2021/11/29 03:45:53;;;;;;;6.40;3.78;;;;;;;7.51;46.85;99996.63;5049617;28;20049;-76
2021/11/29 03:48:21;;;;;;;6.22;3.60;;;;;;;7.50;46.73;99999.41;5055952;28;20450;-76
2021/11/29 03:50:48;;;;;;;5.40;3.33;;;;;;;7.48;46.84;100001.38;5046248;28;20075;-76
2021/11/29 03:53:15;;;;;;;6.57;3.42;;;;;;;7.44;46.54;100000.72;5062487;28;20048;-76
2021/11/29 03:55:42;;;;;;;7.55;3.90;;;;;;;7.42;46.35;99997.25;5056839;28;20271;-77
2021/11/29 03:58:09;;;;;;;5.60;3.65;;;;;;;7.39;46.55;100010.09;5067572;28;20136;-76
2021/11/29 04:00:35;;;;;;;6.63;3.97;;;;;;;7.36;46.37;100003.06;5074744;28;20098;-76
2021/11/29 04:03:03;;;;;;;5.28;3.28;;;;;;;7.33;46.59;100015.91;5060689;28;20389;-76
2021/11/29 04:05:30;;;;;;;6.15;4.10;;;;;;;7.30;46.76;100024.22;5068756;28;20055;-76
2021/11/29 04:07:56;;;;;;;5.40;3.80;;;;;;;7.28;46.68;100023.44;5052341;28;20044;-76
2021/11/29 04:10:23;;;;;;;6.93;4.20;;;;;;;7.24;46.51;100034.47;5048736;28;20068;-76
2021/11/29 04:12:50;;;;;;;7.15;3.60;;;;;;;7.22;46.76;100024.72;5058668;28;20053;-76
2021/11/29 04:15:16;;;;;;;5.85;3.60;;;;;;;7.20;46.94;100027.53;5053370;28;20052;-76
2021/11/29 04:17:43;;;;;;;5.82;3.65;;;;;;;7.18;46.73;100020.47;5047797;28;20114;-76
2021/11/29 04:20:14;;;;;;;6.25;3.60;;;;;;;7.18;46.71;100025.88;5054354;28;20076;-76
2021/11/29 04:22:45;;;;;;;5.22;3.22;;;;;;;7.15;46.86;100029.66;5046484;28;20053;-76
2021/11/29 04:25:15;;;;;;;5.82;3.63;;;;;;;7.14;47.06;100030.63;5062957;28;20052;-76
2021/11/29 04:27:43;;;;;;;6.32;3.38;;;;;;;7.13;46.85;100025.31;5071433;28;20539;-76
2021/11/29 04:30:16;;;;;;;5.20;3.38;;;;;;;7.14;47.18;100027.06;5062738;28;20528;-76
2021/11/29 04:32:43;;;;;;;5.20;3.08;;;;;;;7.10;47.19;100029.09;5061964;28;20131;-76
2021/11/29 04:35:10;;;;;;;5.30;3.25;;;;;;;7.11;47.11;100022.72;5060533;28;20450;-76
2021/11/29 04:37:37;;;;;;;4.68;2.90;;;;;;;7.14;47.15;100038.72;5051681;28;20088;-76
2021/11/29 04:40:06;;;;;;;4.70;2.75;;;;;;;7.13;47.02;100026.19;5052929;28;20044;-76
2021/11/29 04:42:33;;;;;;;5.22;2.92;;;;;;;7.15;46.95;100036.91;5063323;28;20060;-76
2021/11/29 04:45:00;;;;;;;4.45;2.90;;;;;;;7.15;47.22;100036.91;5062106;28;20045;-76
2021/11/29 04:47:27;;;;;;;4.43;2.75;;;;;;;7.16;47.03;100033.22;5067989;28;20173;-76
2021/11/29 04:49:53;;;;;;;4.28;2.40;;;;;;;7.17;47.27;100038.50;5065749;28;20040;-76
2021/11/29 04:52:20;;;;;;;4.80;2.70;;;;;;;7.18;47.46;100045.66;5059495;28;20049;-76
2021/11/29 04:54:46;;;;;;;4.43;2.80;;;;;;;7.18;47.15;100042.06;5053653;28;20045;-76
2021/11/29 04:57:13;;;;;;;4.35;2.38;;;;;;;7.18;47.35;100066.38;5073330;28;20101;-76
2021/11/29 04:59:40;;;;;;;5.72;2.60;;;;;;;7.18;47.32;100060.97;5058417;28;20061;-76
2021/11/29 05:02:07;;;;;;;3.85;2.25;;;;;;;7.18;47.32;100067.25;5051955;28;20056;-76
2021/11/29 05:04:34;;;;;;;3.88;2.20;;;;;;;7.17;47.58;100068.19;5044425;28;20048;-76
2021/11/29 05:07:00;;;;;;;3.47;2.38;;;;;;;7.19;47.42;100062.72;5058753;28;20057;-76
2021/11/29 05:09:27;;;;;;;4.63;2.35;;;;;;;7.20;47.75;100064.44;5063626;28;20040;-76
2021/11/29 05:11:53;;;;;;;3.80;2.17;;;;;;;7.20;47.51;100064.44;5056104;28;20389;-76
2021/11/29 05:14:20;;;;;;;4.22;2.38;;;;;;;7.21;47.80;100067.06;5050786;28;20458;-76
2021/11/29 05:16:47;;;;;;;4.22;2.25;;;;;;;7.21;47.40;100066.19;5051218;28;20060;-76
2021/11/29 05:19:13;;;;;;;3.38;2.13;;;;;;;7.23;47.50;100070.53;5066144;28;20476;-76
2021/11/29 05:21:40;;;;;;;3.10;2.00;;;;;;;7.23;47.77;100066.97;5040715;28;20074;-76
2021/11/29 05:24:07;;;;;;;3.20;1.80;;;;;;;7.22;47.73;100071.50;5054809;28;20052;-76
2021/11/29 05:26:33;;;;;;;4.95;2.17;;;;;;;7.22;47.63;100076.88;5055959;28;20049;-76
2021/11/29 05:29:00;;;;;;;3.40;1.98;;;;;;;7.22;47.48;100076.03;5080265;28;20109;-76
2021/11/29 05:31:27;;;;;;;4.35;1.90;;;;;;;7.24;47.54;100079.50;5068481;28;20067;-76
2021/11/29 05:33:54;;;;;;;4.53;2.13;;;;;;;7.23;47.84;100080.44;5067239;28;20106;-76
2021/11/29 05:36:21;;;;;;;3.60;1.83;;;;;;;7.23;47.88;100080.44;5065909;28;20056;-76
2021/11/29 05:38:47;;;;;;;2.65;1.58;;;;;;;7.22;48.05;100084.97;5045753;28;20044;-76
2021/11/29 05:41:14;;;;;;;3.22;1.60;;;;;;;7.23;48.11;100092.13;5044732;28;20045;-76
2021/11/29 05:43:41;;;;;;;4.53;2.30;;;;;;;7.23;47.90;100099.34;5066608;28;20116;-76
2021/11/29 05:46:07;;;;;;;2.92;1.58;;;;;;;7.24;47.55;100099.25;5064485;28;20078;-76
2021/11/29 05:48:35;;;;;;;3.15;1.85;;;;;;;7.25;47.91;100100.09;5064519;28;20188;-76
2021/11/29 05:51:02;;;;;;;2.75;1.80;;;;;;;7.26;47.95;100099.13;5067437;28;20052;-76
2021/11/29 05:53:29;;;;;;;2.20;1.50;;;;;;;7.26;47.77;100101.84;5060917;28;20049;-76
2021/11/29 05:55:56;;;;;;;3.47;1.90;;;;;;;7.26;47.97;100108.09;5063814;28;20121;-77
2021/11/29 05:58:22;;;;;;;2.60;1.73;;;;;;;7.26;47.93;100113.50;5070255;28;20076;-76
2021/11/29 06:00:49;;;;;;;3.85;1.70;;;;;;;7.31;47.88;100120.44;5056490;28;20075;-76
2021/11/29 06:03:16;;;;;;;3.30;2.35;;;;;;;7.30;47.90;100116.00;5060091;28;20485;-76
2021/11/29 06:05:43;;;;;;;3.47;1.50;;;;;;;7.31;47.98;100123.16;5042535;28;20103;-76
2021/11/29 06:08:09;;;;;;;2.42;1.67;;;;;;;7.32;47.98;100119.50;5059777;28;20076;-76
2021/11/29 06:10:36;;;;;;;2.90;1.73;;;;;;;7.33;48.27;100129.31;5046499;28;20084;-76
2021/11/29 06:13:02;;;;;;;2.17;1.60;;;;;;;7.34;47.96;100122.94;5050835;28;20466;-76
2021/11/29 06:15:29;;;;;;;3.55;2.10;;;;;;;7.34;47.92;100123.78;5062310;28;20049;-76
2021/11/29 06:17:56;;;;;;;4.75;2.33;;;;;;;7.35;48.16;100125.53;5052886;28;20045;-77
2021/11/29 06:20:22;;;;;;;3.15;1.90;;;;;;;7.35;48.02;100128.22;5065314;28;20123;-77
2021/11/29 06:22:52;;;;;;;3.58;2.10;;;;;;;7.37;48.05;100129.00;5053728;28;20114;-77
2021/11/29 06:25:21;;;;;;;2.58;1.85;;;;;;;7.37;48.37;100126.31;5065062;28;20048;-77
2021/11/29 06:27:49;;;;;;;3.08;1.90;;;;;;;7.38;48.00;100121.78;5063504;28;20056;-78
2021/11/29 06:30:18;;;;;;;3.55;1.80;;;;;;;7.40;48.14;100130.66;5071964;28;20076;-77
2021/11/29 06:32:45;;;;;;;3.30;1.90;;;;;;;7.38;48.30;100132.59;5039186;28;20094;-77
2021/11/29 06:35:12;;;;;;;4.32;2.00;;;;;;;7.37;48.29;100123.59;5060429;28;20166;-77
2021/11/29 06:37:42;;;;;;;3.72;2.10;;;;;;;7.40;48.34;100139.63;5057279;28;20041;-77
2021/11/29 06:40:09;;;;;;;2.80;1.95;;;;;;;7.40;48.12;100134.22;5063355;28;20095;-77
2021/11/29 06:42:36;;;;;;;3.50;2.08;;;;;;;7.38;48.28;100128.06;5063409;28;20527;-78
2021/11/29 06:45:03;;;;;;;2.67;1.92;;;;;;;7.39;48.21;100132.47;5043721;28;20053;-77
2021/11/29 06:47:29;;;;;;;2.92;1.88;;;;;;;7.38;48.34;100130.75;5043084;28;20053;-77
2021/11/29 06:49:56;;;;;;;3.28;1.95;;;;;;;7.39;48.23;100139.72;5048462;28;20485;-77
2021/11/29 06:52:23;;;;;;;3.40;1.80;;;;;;;7.40;48.12;100141.47;5051301;28;20202;-77
2021/11/29 06:54:50;;;;;;;4.05;2.10;;;;;;;7.39;48.42;100140.59;5062956;28;20056;-77
2021/11/29 06:57:18;;;;;;;3.75;2.20;;;;;;;7.41;48.18;100138.63;5057253;28;20088;-78
2021/11/29 06:59:46;;;;;;;3.75;2.38;;;;;;;7.41;48.37;100138.63;5054982;28;20037;-78
2021/11/29 07:02:16;;;;;;;7.55;2.63;;;;;;;7.43;48.06;100150.22;5064841;28;20344;-78
2021/11/29 07:04:43;;;;;;;6.18;2.72;;;;;;;7.42;48.34;100145.78;5059741;28;20209;-77
2021/11/29 07:07:09;;;;;;;3.90;2.13;;;;;;;7.42;48.29;100153.88;5066633;28;20057;-77
2021/11/29 07:09:36;;;;;;;5.55;2.63;;;;;;;7.43;48.25;100152.91;5060067;28;20090;-78
2021/11/29 07:12:03;;;;;;;4.20;2.47;;;;;;;7.44;48.20;100154.66;5066000;28;20139;-77
2021/11/29 07:14:29;;;;;;;3.88;2.20;;;;;;;7.44;48.37;100151.94;5051466;28;20048;-78
2021/11/29 07:16:56;;;;;;;4.63;2.30;;;;;;;7.45;48.55;100160.91;5051760;28;20092;-78
2021/11/29 07:19:24;;;;;;;4.05;2.38;;;;;;;7.45;48.53;100160.91;5054755;28;20444;-78
2021/11/29 07:21:52;;;;;;;5.50;2.53;;;;;;;7.44;48.35;100153.78;5047451;28;20056;-78
2021/11/29 07:24:19;;;;;;;3.78;1.90;;;;;;;7.45;48.32;100158.22;5038206;28;20044;-78
2021/11/29 07:26:45;;;;;;;4.05;2.17;;;;;;;7.46;48.44;100151.84;5070493;28;20055;-77
2021/11/29 07:29:14;;;;;;;4.55;2.35;;;;;;;7.47;48.47;100164.38;5080504;28;20383;-76
2021/11/29 07:31:42;;;;;;;2.63;1.85;;;;;;;7.46;48.38;100173.47;5055575;28;20063;-78
2021/11/29 07:34:09;;;;;;;3.38;1.92;;;;;;;7.46;48.48;100177.03;5037537;28;20071;-78
2021/11/29 07:36:36;;;;;;;3.47;2.10;;;;;;;7.47;48.44;100181.47;5061638;28;20446;-78
2021/11/29 07:39:04;;;;;;;3.30;1.98;;;;;;;7.48;48.37;100188.59;5067050;28;20067;-77
2021/11/29 07:41:31;;;;;;;3.80;2.30;;;;;;;7.48;48.68;100194.00;5058222;28;20495;-77
2021/11/29 07:43:57;;;;;;;3.33;2.17;;;;;;;7.48;48.65;100188.59;5063913;28;20049;-77
2021/11/29 07:46:24;;;;;;;3.00;2.20;;;;;;;7.52;48.39;100183.84;5049252;28;20072;-77
2021/11/29 07:48:51;;;;;;;3.08;2.13;;;;;;;7.52;48.46;100187.41;5066766;28;20132;-77
2021/11/29 07:51:17;;;;;;;3.53;2.20;;;;;;;7.51;48.08;100187.50;5060661;28;20454;-77
2021/11/29 07:53:44;;;;;;;4.60;2.20;;;;;;;7.52;48.33;100192.81;5054746;28;20098;-77
2021/11/29 07:56:11;;;;;;;4.00;2.35;;;;;;;7.52;48.42;100203.63;5038650;28;20088;-77
2021/11/29 07:58:37;;;;;;;3.67;2.30;;;;;;;7.52;48.41;100205.47;5082754;28;20052;-78
2021/11/29 08:01:04;;;;;;;3.95;2.15;;;;;;;7.53;48.55;100209.91;5050781;28;20040;-79
2021/11/29 08:03:32;;;;;;;3.88;2.20;;;;;;;7.55;48.53;100213.38;5066822;28;20096;-78
2021/11/29 08:05:59;;;;;;;3.72;1.98;;;;;;;7.53;48.40;100208.06;5069123;28;20052;-77
2021/11/29 08:08:25;;;;;;;3.35;2.10;;;;;;;7.53;48.44;100212.59;5064649;28;20080;-78
2021/11/29 08:10:52;;;;;;;4.65;2.60;;;;;;;7.55;48.39;100218.78;5065896;28;20045;-77
2021/11/29 08:13:19;;;;;;;5.03;2.50;;;;;;;7.55;48.42;100219.66;5051055;28;20526;-78
2021/11/29 08:15:46;;;;;;;3.63;2.28;;;;;;;7.54;48.48;100225.16;5064173;28;20107;-78
2021/11/29 08:18:13;;;;;;;4.43;2.40;;;;;;;7.54;48.43;100226.00;5063881;28;20148;-78
2021/11/29 08:20:40;;;;;;;4.18;2.10;;;;;;;7.56;48.10;100225.91;5074535;28;20098;-78
2021/11/29 08:23:08;;;;;;;4.25;2.25;;;;;;;7.55;48.54;100221.47;5049725;28;20500;-78
2021/11/29 08:25:39;;;;;;;4.00;2.00;;;;;;;7.56;48.42;100231.31;5055596;28;20053;-77
2021/11/29 08:28:11;;;;;;;3.08;2.08;;;;;;;7.58;48.40;100226.66;5058608;28;20059;-79
2021/11/29 08:30:39;;;;;;;3.25;2.13;;;;;;;7.55;48.44;100232.28;5047284;28;20041;-78
2021/11/29 08:33:09;;;;;;;4.45;2.33;;;;;;;7.55;48.60;100230.44;5070384;28;20067;-78
2021/11/29 08:35:35;;;;;;;3.88;2.70;;;;;;;7.56;48.70;100239.44;5034523;28;20061;-78
2021/11/29 08:38:02;;;;;;;3.88;2.10;;;;;;;7.56;48.63;100242.13;5063806;28;20468;-77
2021/11/29 08:40:34;;;;;;;4.78;2.47;;;;;;;7.59;48.68;100247.31;5067732;28;20155;-78
2021/11/29 08:43:20;;;;;;;4.43;2.33;;;;;;;7.57;48.73;100244.75;5054758;28;20106;-78
2021/11/29 08:45:49;;;;;;;5.38;2.38;;;;;;;7.59;48.63;100241.91;5059492;28;20068;-78
2021/11/29 08:48:17;;;;;;;4.38;2.63;;;;;;;7.58;48.69;100240.16;5067037;28;20084;-78
2021/11/29 08:50:46;;;;;;;4.22;2.38;;;;;;;7.60;48.46;100243.66;5051229;28;20307;-79
2021/11/29 08:53:17;;;;;;;2.95;2.03;;;;;;;7.61;48.80;100245.38;5068055;28;20285;-78
2021/11/29 08:55:43;;;;;;;5.82;2.60;;;;;;;7.59;48.61;100245.47;5065340;28;20052;-78
2021/11/29 08:58:11;;;;;;;4.85;2.22;;;;;;;7.61;48.74;100246.25;5069568;28;20063;-78
2021/11/29 09:00:40;;;;;;;4.30;2.25;;;;;;;7.63;48.89;100249.75;5053138;28;20048;-79
2021/11/29 09:03:08;;;;;;;3.97;2.47;;;;;;;7.64;48.81;100256.00;5058720;28;20072;-80
2021/11/29 09:05:39;;;;;;;5.47;2.58;;;;;;;7.67;48.93;100252.22;5036691;28;20474;-78
2021/11/29 09:08:07;;;;;;;4.97;2.75;;;;;;;7.66;49.05;100259.47;5043251;28;20094;-79
2021/11/29 09:10:34;;;;;;;5.88;2.85;;;;;;;7.67;48.84;100258.50;5035261;28;20138;-78
2021/11/29 09:13:01;;;;;;;3.88;2.22;;;;;;;7.69;48.83;100264.69;5058157;28;20056;-78
2021/11/29 09:15:28;;;;;;;4.18;2.50;;;;;;;7.69;48.88;100263.81;5065029;28;20041;-79
2021/11/29 09:17:55;;;;;;;4.00;2.40;;;;;;;7.71;48.97;100267.28;5054021;28;20044;-80
2021/11/29 09:20:24;;;;;;;4.25;2.42;;;;;;;7.71;48.86;100265.44;5085056;28;20324;-79
2021/11/29 09:22:52;;;;;;;4.80;2.40;;;;;;;7.73;48.67;100273.47;5060778;28;20098;-79
2021/11/29 09:25:18;;;;;;;4.85;2.60;;;;;;;7.72;48.91;100271.72;5048403;28;20045;-78
2021/11/29 09:27:45;;;;;;;3.75;2.40;;;;;;;7.74;49.13;100286.84;5061602;28;20056;-78
2021/11/29 09:30:15;;;;;;;4.75;2.60;;;;;;;7.75;48.96;100285.88;5067300;28;20337;-79
2021/11/29 09:32:42;;;;;;;5.55;2.90;;;;;;;7.76;48.96;100281.34;5055163;28;20060;-78
2021/11/29 09:35:12;;;;;;;5.88;3.17;;;;;;;7.79;48.99;100292.84;5050858;28;20040;-78
2021/11/29 09:37:40;;;;;;;5.18;2.92;;;;;;;7.79;49.00;100290.16;5047755;28;20495;-79
2021/11/29 09:40:11;;;;;;;6.90;3.35;;;;;;;7.81;49.04;100290.94;5069193;28;20044;-79
2021/11/29 09:42:39;;;;;;;5.35;2.70;;;;;;;7.82;49.03;100292.66;5067128;28;20067;-78
2021/11/29 09:45:11;;;;;;;5.05;3.00;;;;;;;7.84;49.10;100297.94;5057759;28;20045;-78
2021/11/29 09:47:38;;;;;;;6.40;2.95;;;;;;;7.83;48.86;100299.78;5053794;28;20491;-79
2021/11/29 09:50:05;;;;;;;6.47;2.90;;;;;;;7.85;49.10;100296.97;5058109;28;20053;-78
2021/11/29 09:52:32;;;;;;;4.70;2.80;;;;;;;7.86;49.08;100301.41;5058271;28;20331;-80
2021/11/29 09:54:59;;;;;;;4.50;2.83;;;;;;;7.88;48.94;100300.38;5047326;28;20056;-78
2021/11/29 09:57:26;;;;;;;6.13;3.15;;;;;;;7.88;49.51;100300.38;5051002;28;20059;-78
2021/11/29 09:59:53;;;;;;;5.18;3.03;;;;;;;7.88;49.24;100304.91;5041297;28;20061;-81
2021/11/29 10:02:20;;;;;;;5.38;2.90;;;;;;;7.89;49.37;100309.34;5033162;28;20052;-79
2021/11/29 10:04:48;;;;;;;4.35;2.80;;;;;;;7.92;49.47;100314.53;5067353;28;20056;-80
2021/11/29 10:07:30;;;;;;;5.30;2.70;;;;;;;7.93;49.53;100313.56;5066666;28;20045;-80
2021/11/29 10:10:10;;;;;;;5.57;3.17;;;;;;;7.92;49.62;100307.28;5050870;28;20464;-81
2021/11/29 10:12:36;;;;;;;5.82;3.30;;;;;;;7.92;49.32;100318.09;5047656;28;20102;-80
2021/11/29 10:15:18;;;;;;;5.10;3.08;;;;;;;7.94;50.03;100313.47;5056491;28;20049;-82
2021/11/29 10:17:47;;;;;;;5.25;3.05;;;;;;;7.94;49.27;100323.41;5061121;28;20284;-80
2021/11/29 10:20:31;;;;;;;5.72;3.60;;;;;;;7.93;49.51;100316.28;5055225;28;20095;-80
2021/11/29 10:23:05;;;;;;;5.03;3.22;;;;;;;7.95;49.85;100320.63;5031872;28;20053;-80
2021/11/29 10:25:31;;;;;;;6.60;4.10;;;;;;;7.94;49.30;100321.59;5053228;28;20106;-80
2021/11/29 10:27:58;;;;;;;8.52;3.92;;;;;;;7.96;49.43;100322.38;5077909;28;20084;-81
2021/11/29 10:30:26;;;;;;;5.50;3.08;;;;;;;7.98;49.68;100325.84;5053578;28;20076;-80
2021/11/29 10:32:53;;;;;;;7.47;3.63;;;;;;;7.98;49.59;100324.97;5053515;28;20076;-79
2021/11/29 10:35:24;;;;;;;6.68;3.10;;;;;;;7.99;49.58;100330.25;5041858;28;20049;-79
2021/11/29 10:37:52;;;;;;;5.22;3.00;;;;;;;8.00;49.76;100333.81;5048770;28;20055;-80
2021/11/29 10:40:20;;;;;;;6.13;2.97;;;;;;;8.01;49.69;100331.03;5066780;28;20102;-80
2021/11/29 10:42:48;;;;;;;5.22;2.78;;;;;;;8.01;49.92;100331.03;5048892;28;20114;-78
2021/11/29 10:45:22;;;;;;;6.68;2.70;;;;;;;8.06;50.10;100324.47;5054733;28;20048;-79
2021/11/29 10:47:52;;;;;;;5.70;2.90;;;;;;;8.07;49.52;100331.63;5045595;28;20061;-80
2021/11/29 10:50:28;;;;;;;4.75;2.83;;;;;;;8.09;50.13;100332.38;5057333;28;20049;-80
2021/11/29 10:53:13;;;;;;;5.82;3.35;;;;;;;8.08;50.08;100336.03;5049126;28;20068;-83
2021/11/29 10:55:59;;;;;;;6.35;2.88;;;;;;;8.07;50.58;100337.88;5053390;28;20064;-80
2021/11/29 10:58:28;;;;;;;4.05;2.55;;;;;;;8.06;49.87;100338.84;5055494;28;20088;-80
2021/11/29 11:01:07;;;;;;;5.00;2.80;;;;;;;8.10;50.35;100342.22;5059388;28;20049;-81
2021/11/29 11:03:58;;;;;;;5.05;2.70;;;;;;;8.08;50.49;100330.63;5046484;28;20547;-81
2021/11/29 11:06:34;;;;;;;5.07;2.78;;;;;;;8.10;50.03;100345.78;5041432;28;20056;-79
2021/11/29 11:09:09;;;;;;;5.15;2.78;;;;;;;8.12;50.92;100345.69;5061198;28;20048;-79
2021/11/29 11:11:55;;;;;;;4.95;2.65;;;;;;;8.13;50.54;100351.00;5055585;28;20041;-81
2021/11/29 11:14:28;;;;;;;5.43;2.55;;;;;;;8.15;50.70;100353.63;5061719;28;20433;-81
2021/11/29 11:17:15;;;;;;;4.93;2.60;;;;;;;8.14;50.67;100355.44;5067975;28;20474;-82
2021/11/29 11:19:49;;;;;;;4.80;2.30;;;;;;;8.23;50.96;100357.56;5052423;28;20056;-82
2021/11/29 11:22:20;;;;;;;5.55;2.40;;;;;;;8.25;50.85;100366.41;5056476;28;20056;-83
2021/11/29 11:25:06;;;;;;;4.22;2.13;;;;;;;8.29;50.94;100367.97;5052788;28;20048;-82
2021/11/29 11:27:36;;;;;;;3.72;2.30;;;;;;;8.31;51.01;100368.78;5055900;28;20056;-81
2021/11/29 11:30:14;;;;;;;4.68;2.58;;;;;;;8.36;51.41;100372.03;5065236;28;20045;-82
2021/11/29 11:32:47;;;;;;;3.75;1.88;;;;;;;8.37;50.72;100372.91;5051467;28;20049;-81
2021/11/29 11:35:18;;;;;;;3.78;2.10;;;;;;;8.44;51.08;100378.78;5051177;28;20098;-81
2021/11/29 11:37:51;;;;;;;3.80;2.05;;;;;;;8.45;50.70;100377.81;5062810;28;20057;-81
2021/11/29 11:40:27;;;;;;;3.80;2.00;;;;;;;8.47;50.79;100374.06;5050852;28;20052;-82
2021/11/29 11:42:56;;;;;;;4.57;2.00;;;;;;;8.50;51.02;100384.66;5062919;28;20077;-82
2021/11/29 11:45:25;;;;;;;3.85;2.17;;;;;;;8.55;50.90;100378.97;5047211;28;20130;-83
2021/11/29 11:47:53;;;;;;;3.97;2.10;;;;;;;8.58;50.89;100384.13;5049593;28;20063;-82